createdAt,value
2023-03-05T00:01:28.026Z,5.57
2023-03-05T00:03:58.356Z,1.13
2023-03-05T00:06:27.986Z,0.65
2023-03-05T00:08:58.277Z,1.42
2023-03-05T00:11:29.595Z,3.25
2023-03-05T00:13:58.420Z,4.32
2023-03-05T00:16:27.357Z,3.17
2023-03-05T00:18:58.067Z,1.42
2023-03-05T00:21:28.130Z,2.30
2023-03-05T00:23:57.109Z,3.47
2023-03-05T00:26:26.608Z,0.93
2023-03-05T00:28:56.266Z,5.15
2023-03-05T00:31:26.951Z,0.90
2023-03-05T00:33:57.926Z,1.50
2023-03-05T00:36:26.895Z,2.05
2023-03-05T00:38:55.747Z,1.77
2023-03-05T00:41:24.063Z,4.03
2023-03-05T00:43:52.212Z,3.55
2023-03-05T00:46:20.128Z,1.10
2023-03-05T00:48:48.147Z,1.77
2023-03-05T00:51:17.532Z,2.17
2023-03-05T00:53:45.742Z,1.33
2023-03-05T00:56:13.930Z,1.17
2023-03-05T00:58:42.107Z,1.52
2023-03-05T01:01:10.444Z,0.85
2023-03-05T01:03:38.492Z,0.88
2023-03-05T01:06:08.877Z,0.28
2023-03-05T01:08:38.805Z,1.70
2023-03-05T01:11:08.604Z,1.38
2023-03-05T01:13:36.902Z,0.47
2023-03-05T01:16:06.467Z,0.82
2023-03-05T01:18:34.863Z,2.67
2023-03-05T01:21:02.844Z,2.05
2023-03-05T01:23:30.815Z,1.88
2023-03-05T01:26:00.933Z,2.28
2023-03-05T01:28:29.869Z,2.65
2023-03-05T01:30:57.931Z,3.72
2023-03-05T01:33:25.904Z,3.63
2023-03-05T01:35:54.196Z,0.93
2023-03-05T01:38:22.339Z,0.95
2023-03-05T01:40:50.304Z,0.93
2023-03-05T01:43:27.530Z,2.10
2023-03-05T01:46:30.992Z,2.08
2023-03-05T01:49:24.822Z,2.28
2023-03-05T01:52:02.211Z,1.38
2023-03-05T01:54:34.724Z,5.15
2023-03-05T01:57:09.120Z,2.83
2023-03-05T01:59:42.522Z,1.23
2023-03-05T02:02:10.621Z,0.77
2023-03-05T02:04:43.616Z,1.30
2023-03-05T02:07:12.827Z,0.88
2023-03-05T02:09:41.264Z,3.90
2023-03-05T02:12:11.894Z,0.77
2023-03-05T02:14:43.551Z,0.73
2023-03-05T02:17:12.097Z,0.32
2023-03-05T02:19:51.534Z,1.55
2023-03-05T02:22:23.176Z,2.38
2023-03-05T02:24:51.841Z,0.22
2023-03-05T02:27:27.264Z,2.08
2023-03-05T02:29:55.716Z,1.88
2023-03-05T02:32:23.699Z,1.08
2023-03-05T02:34:51.696Z,1.20
2023-03-05T02:37:21.283Z,0.85
2023-03-05T02:39:49.302Z,1.25
2023-03-05T02:42:17.412Z,0.50
2023-03-05T02:44:45.291Z,2.05
2023-03-05T02:47:13.308Z,0.73
2023-03-05T02:49:41.567Z,1.55
2023-03-05T02:52:09.804Z,0.95
2023-03-05T02:54:39.262Z,1.65
2023-03-05T02:57:07.331Z,1.08
2023-03-05T02:59:35.242Z,1.02
2023-03-05T03:02:03.601Z,1.40
2023-03-05T03:04:31.604Z,5.18
2023-03-05T03:06:59.646Z,0.70
2023-03-05T03:09:27.790Z,1.05
2023-03-05T03:11:57.249Z,0.90
2023-03-05T03:14:25.134Z,2.63
2023-03-05T03:16:53.083Z,1.15
2023-03-05T03:19:20.940Z,0.98
2023-03-05T03:21:49.952Z,1.50
2023-03-05T03:24:17.997Z,1.77
2023-03-05T03:26:46.521Z,1.88
2023-03-05T03:29:15.941Z,0.70
2023-03-05T03:31:45.616Z,0.85
2023-03-05T03:34:15.080Z,0.70
2023-03-05T03:36:43.609Z,0.90
2023-03-05T03:39:14.061Z,2.17
2023-03-05T03:41:43.856Z,0.52
2023-03-05T03:44:12.335Z,0.90
2023-03-05T03:46:42.339Z,1.48
2023-03-05T03:49:16.577Z,1.23
2023-03-05T03:51:44.690Z,1.17
2023-03-05T03:54:12.795Z,0.65
2023-03-05T03:56:40.703Z,1.88
2023-03-05T03:59:08.975Z,0.50
2023-03-05T04:01:37.463Z,1.55
2023-03-05T04:04:07.361Z,0.40
2023-03-05T04:06:35.770Z,0.50
2023-03-05T04:09:04.662Z,1.10
2023-03-05T04:11:32.758Z,4.13
2023-03-05T04:14:00.662Z,0.40
2023-03-05T04:16:28.724Z,1.23
2023-03-05T04:18:56.642Z,0.75
2023-03-05T04:21:26.103Z,1.58
2023-03-05T04:23:54.203Z,0.82
2023-03-05T04:26:22.178Z,2.40
2023-03-05T04:28:50.188Z,1.17
2023-03-05T04:31:20.620Z,0.50
2023-03-05T04:33:48.672Z,1.38
2023-03-05T04:36:16.784Z,2.85
2023-03-05T04:38:46.453Z,0.80
2023-03-05T04:41:14.311Z,0.77
2023-03-05T04:43:42.274Z,1.30
2023-03-05T04:46:10.386Z,2.05
2023-03-05T04:48:38.432Z,0.25
2023-03-05T04:51:06.930Z,0.77
2023-03-05T04:53:35.342Z,0.80
2023-03-05T04:56:05.143Z,1.00
2023-03-05T04:58:33.089Z,1.52
2023-03-05T05:01:05.517Z,0.55
2023-03-05T05:03:33.991Z,1.17
2023-03-05T05:06:02.698Z,3.55
2023-03-05T05:08:31.028Z,0.95
2023-03-05T05:11:00.725Z,1.02
2023-03-05T05:13:30.983Z,2.33
2023-03-05T05:15:59.109Z,0.95
2023-03-05T05:18:27.501Z,0.20
2023-03-05T05:20:55.632Z,0.73
2023-03-05T05:23:23.524Z,1.35
2023-03-05T05:25:58.019Z,0.57
2023-03-05T05:28:26.086Z,0.30
2023-03-05T05:30:55.934Z,0.32
2023-03-05T05:33:24.816Z,1.08
2023-03-05T05:35:53.018Z,0.75
2023-03-05T05:38:21.226Z,1.33
2023-03-05T05:40:49.130Z,0.43
2023-03-05T05:43:17.130Z,0.73
2023-03-05T05:45:45.208Z,0.22
2023-03-05T05:48:14.794Z,1.65
2023-03-05T05:50:42.700Z,0.65
2023-03-05T05:53:10.634Z,1.55
2023-03-05T05:55:41.317Z,1.90
2023-03-05T05:58:09.426Z,1.08
2023-03-05T06:00:37.411Z,1.05
2023-03-05T06:03:05.620Z,0.82
2023-03-05T06:05:35.130Z,1.38
2023-03-05T06:08:03.359Z,0.70
2023-03-05T06:10:31.294Z,2.63
2023-03-05T06:12:59.295Z,0.80
2023-03-05T06:15:27.364Z,1.73
2023-03-05T06:17:55.311Z,1.38
2023-03-05T06:20:23.354Z,0.35
2023-03-05T06:22:52.675Z,4.15
2023-03-05T06:25:20.666Z,1.30
2023-03-05T06:27:48.620Z,0.35
2023-03-05T06:30:16.910Z,2.13
2023-03-05T06:32:44.844Z,0.20
2023-03-05T06:35:14.103Z,0.40
2023-03-05T06:37:42.011Z,0.28
2023-03-05T06:40:13.143Z,1.20
2023-03-05T06:42:41.143Z,0.50
2023-03-05T06:45:10.695Z,2.63
2023-03-05T06:47:38.743Z,0.57
2023-03-05T06:50:07.988Z,1.10
2023-03-05T06:52:36.048Z,1.85
2023-03-05T06:55:04.688Z,0.38
2023-03-05T06:57:34.380Z,2.08
2023-03-05T07:00:03.531Z,1.17
2023-03-05T07:02:31.883Z,0.60
2023-03-05T07:04:59.884Z,0.43
2023-03-05T07:07:27.991Z,0.52
2023-03-05T07:09:56.019Z,0.82
2023-03-05T07:12:24.002Z,0.70
2023-03-05T07:14:53.381Z,0.63
2023-03-05T07:17:21.293Z,1.55
2023-03-05T07:19:49.210Z,0.68
2023-03-05T07:22:17.341Z,0.55
2023-03-05T07:24:45.292Z,0.75
2023-03-05T07:27:13.407Z,0.93
2023-03-05T07:29:41.434Z,0.22
2023-03-05T07:32:10.878Z,0.73
2023-03-05T07:34:38.925Z,1.08
2023-03-05T07:37:06.902Z,1.45
2023-03-05T07:39:34.958Z,0.40
2023-03-05T07:42:03.191Z,0.50
2023-03-05T07:44:48.092Z,0.65
2023-03-05T07:47:17.652Z,0.30
2023-03-05T07:49:45.677Z,0.40
2023-03-05T07:52:13.662Z,1.85
2023-03-05T07:54:41.734Z,1.00
2023-03-05T07:57:12.531Z,0.70
2023-03-05T07:59:40.878Z,0.90
2023-03-05T08:02:08.968Z,0.98
2023-03-05T08:04:38.598Z,0.25
2023-03-05T08:07:06.709Z,0.65
2023-03-05T08:09:34.780Z,0.57
2023-03-05T08:12:02.758Z,0.35
2023-03-05T08:14:30.737Z,0.52
2023-03-05T08:16:58.744Z,0.63
2023-03-05T08:19:26.851Z,1.00
2023-03-05T08:21:56.529Z,0.32
2023-03-05T08:24:29.834Z,1.50
2023-03-05T08:26:58.307Z,2.40
2023-03-05T08:29:28.830Z,0.85
2023-03-05T08:31:56.811Z,3.58
2023-03-05T08:34:24.889Z,0.98
2023-03-05T08:36:52.845Z,1.30
2023-03-05T08:39:22.441Z,0.50
2023-03-05T08:41:50.338Z,2.40
2023-03-05T08:44:18.343Z,0.93
2023-03-05T08:46:46.381Z,2.28
2023-03-05T08:49:14.398Z,0.63
2023-03-05T08:51:43.650Z,2.00
2023-03-05T08:54:11.841Z,2.22
2023-03-05T08:56:41.368Z,0.35
2023-03-05T08:59:10.175Z,0.57
2023-03-05T09:01:39.085Z,3.55
2023-03-05T09:04:07.041Z,2.28
2023-03-05T09:06:39.258Z,1.27
2023-03-05T09:09:08.588Z,1.63
2023-03-05T09:11:37.282Z,1.20
2023-03-05T09:14:08.299Z,3.25
2023-03-05T09:16:38.519Z,0.95
2023-03-05T09:19:06.503Z,2.53
2023-03-05T09:21:34.565Z,1.30
2023-03-05T09:24:02.717Z,1.02
2023-03-05T09:26:30.940Z,1.35
2023-03-05T09:28:59.367Z,0.75
2023-03-05T09:31:28.809Z,5.55
2023-03-05T09:33:56.798Z,1.33
2023-03-05T09:36:26.543Z,0.80
2023-03-05T09:38:55.039Z,1.20
2023-03-05T09:41:34.453Z,0.63
2023-03-05T09:44:12.798Z,1.40
2023-03-05T09:46:52.185Z,0.75
2023-03-05T09:49:31.866Z,1.35
2023-03-05T09:52:06.735Z,0.77
2023-03-05T09:54:40.831Z,5.20
2023-03-05T09:57:18.576Z,1.17
2023-03-05T09:59:51.557Z,0.70
2023-03-05T10:02:26.738Z,2.28
2023-03-05T10:04:58.911Z,2.70
2023-03-05T10:07:30.323Z,0.80
2023-03-05T10:10:02.525Z,1.10
2023-03-05T10:12:42.533Z,1.95
2023-03-05T10:15:15.054Z,1.73
2023-03-05T10:18:10.463Z,0.60
2023-03-05T10:20:56.097Z,1.52
2023-03-05T10:23:30.109Z,1.75
2023-03-05T10:26:08.435Z,2.00
2023-03-05T10:28:44.572Z,0.73
2023-03-05T10:31:31.660Z,1.67
2023-03-05T10:34:13.587Z,3.17
2023-03-05T10:36:58.242Z,1.92
2023-03-05T10:39:47.986Z,3.03
2023-03-05T10:42:23.674Z,0.52
2023-03-05T10:44:55.881Z,3.45
2023-03-05T10:47:27.842Z,2.00
2023-03-05T10:49:59.193Z,3.03
2023-03-05T10:52:32.726Z,4.25
2023-03-05T10:55:00.849Z,89.22
2023-03-05T10:57:31.882Z,434.30
2023-03-05T11:00:08.201Z,619.40
2023-03-05T11:02:55.143Z,641.63
2023-03-05T11:05:49.528Z,709.90
2023-03-05T11:08:27.600Z,718.65
2023-03-05T11:11:11.745Z,739.28
2023-03-05T11:13:51.055Z,697.65
2023-03-05T11:16:21.581Z,641.92
2023-03-05T11:18:50.452Z,588.90
2023-03-05T11:21:23.967Z,472.83
2023-03-05T11:24:06.482Z,380.20
2023-03-05T11:26:34.857Z,310.80
2023-03-05T11:29:04.933Z,256.92
2023-03-05T11:31:34.561Z,218.27
2023-03-05T11:34:04.437Z,191.18
2023-03-05T11:36:35.602Z,165.43
2023-03-05T11:39:12.535Z,138.27
2023-03-05T11:41:43.208Z,125.72
2023-03-05T11:44:15.255Z,115.25
2023-03-05T11:46:45.897Z,95.20
2023-03-05T11:49:17.774Z,82.25
2023-03-05T11:51:54.236Z,78.30
2023-03-05T11:54:27.640Z,63.90
2023-03-05T11:56:56.524Z,63.92
2023-03-05T11:59:29.466Z,55.65
2023-03-05T12:01:59.498Z,43.28
2023-03-05T12:04:28.335Z,47.83
2023-03-05T12:07:01.343Z,40.22
2023-03-05T12:09:40.897Z,42.78
2023-03-05T12:12:18.074Z,41.17
2023-03-05T12:14:51.753Z,36.58
2023-03-05T12:17:25.719Z,38.53
2023-03-05T12:19:59.748Z,29.67
2023-03-05T12:22:37.347Z,27.23
2023-03-05T12:25:28.478Z,26.95
2023-03-05T12:27:57.139Z,26.30
2023-03-05T12:30:56.394Z,20.83
2023-03-05T12:33:34.008Z,23.10
2023-03-05T12:36:37.392Z,21.38
2023-03-05T12:39:38.932Z,20.80
2023-03-05T12:42:45.867Z,18.55
2023-03-05T12:45:29.557Z,17.45
2023-03-05T12:48:43.540Z,15.82
2023-03-05T12:51:28.956Z,13.80
2023-03-05T12:53:58.046Z,13.05
2023-03-05T12:56:31.198Z,12.73
2023-03-05T12:59:02.864Z,10.57
2023-03-05T13:01:39.610Z,9.23
2023-03-05T13:04:15.140Z,10.13
2023-03-05T13:06:43.148Z,10.85
2023-03-05T13:09:18.514Z,8.60
2023-03-05T13:11:49.464Z,8.63
2023-03-05T13:14:39.054Z,10.25
2023-03-05T13:17:32.337Z,7.13
2023-03-05T13:20:01.540Z,8.07
2023-03-05T13:22:29.758Z,6.90
2023-03-05T13:25:14.924Z,7.53
2023-03-05T13:27:43.931Z,7.10
2023-03-05T13:30:24.729Z,20.67
2023-03-05T13:32:54.058Z,23.75
2023-03-05T13:35:22.558Z,17.25
2023-03-05T13:37:51.069Z,15.82
2023-03-05T13:40:25.218Z,13.77
2023-03-05T13:42:54.409Z,13.88
2023-03-05T13:45:27.307Z,6.43
2023-03-05T13:47:58.651Z,7.10
2023-03-05T13:50:29.860Z,6.72
2023-03-05T13:53:14.885Z,6.82
2023-03-05T13:55:42.980Z,5.43
2023-03-05T13:58:52.425Z,6.28
2023-03-05T14:01:29.328Z,6.72
2023-03-05T14:04:00.765Z,5.43
2023-03-05T14:06:30.992Z,5.30
2023-03-05T14:09:07.110Z,4.47
2023-03-05T14:11:35.831Z,3.97
2023-03-05T14:14:09.232Z,5.45
2023-03-05T14:16:38.714Z,5.07
2023-03-05T14:19:09.234Z,6.25
2023-03-05T14:21:48.900Z,6.55
2023-03-05T14:24:23.465Z,2.83
2023-03-05T14:26:53.845Z,3.20
2023-03-05T14:29:25.192Z,4.53
2023-03-05T14:31:57.160Z,4.35
2023-03-05T14:34:31.089Z,4.63
2023-03-05T14:37:03.199Z,4.22
2023-03-05T14:39:39.373Z,3.95
2023-03-05T14:42:27.420Z,4.88
2023-03-05T14:44:56.811Z,3.22
2023-03-05T14:47:27.680Z,6.40
2023-03-05T14:49:55.834Z,7.63
2023-03-05T14:52:26.447Z,1.95
2023-03-05T14:54:55.845Z,1.75
2023-03-05T14:57:27.773Z,2.88
2023-03-05T14:59:56.654Z,2.13
2023-03-05T15:02:27.663Z,1.77
2023-03-05T15:04:55.756Z,0.77
2023-03-05T15:07:28.006Z,1.98
2023-03-05T15:09:56.222Z,1.33
2023-03-05T15:12:24.772Z,2.45
2023-03-05T15:14:53.987Z,3.67
2023-03-05T15:17:23.532Z,2.20
2023-03-05T15:19:53.846Z,4.13
2023-03-05T15:22:21.787Z,2.28
2023-03-05T15:24:50.025Z,1.65
2023-03-05T15:27:17.933Z,2.33
2023-03-05T15:29:46.058Z,2.05
2023-03-05T15:32:14.045Z,0.93
2023-03-05T15:34:42.177Z,1.20
2023-03-05T15:37:11.901Z,2.25
2023-03-05T15:39:39.931Z,2.08
2023-03-05T15:42:08.363Z,3.45
2023-03-05T15:44:36.278Z,6.82
2023-03-05T15:47:04.349Z,1.30
2023-03-05T15:49:32.358Z,3.03
2023-03-05T15:52:00.432Z,1.45
2023-03-05T15:54:29.954Z,1.38
2023-03-05T15:56:57.967Z,1.67
2023-03-05T15:59:26.697Z,1.27
2023-03-05T16:01:54.862Z,2.03
2023-03-05T16:04:22.943Z,1.95
2023-03-05T16:06:51.609Z,1.10
2023-03-05T16:09:21.775Z,2.17
2023-03-05T16:11:51.624Z,1.67
2023-03-05T16:14:24.187Z,1.55
2023-03-05T16:16:56.355Z,1.05
2023-03-05T16:19:26.996Z,2.97
2023-03-05T16:21:54.998Z,0.40
2023-03-05T16:24:23.103Z,1.05
2023-03-05T16:26:52.504Z,0.93
2023-03-05T16:29:20.496Z,3.55
2023-03-05T16:31:48.374Z,1.30
2023-03-05T16:34:16.341Z,0.88
2023-03-05T16:36:49.057Z,2.35
2023-03-05T16:39:17.110Z,2.75
2023-03-05T16:41:45.087Z,2.60
2023-03-05T16:44:14.474Z,2.80
2023-03-05T16:46:43.969Z,1.00
2023-03-05T16:49:12.366Z,8.88
2023-03-05T16:51:40.344Z,0.88
2023-03-05T16:54:10.078Z,3.40
2023-03-05T16:56:38.261Z,1.55
2023-03-05T16:59:06.405Z,2.38
2023-03-05T17:01:35.814Z,2.17
2023-03-05T17:04:03.880Z,0.65
2023-03-05T17:06:33.244Z,1.80
2023-03-05T17:09:02.999Z,2.22
2023-03-05T17:11:31.485Z,1.05
2023-03-05T17:13:59.454Z,1.67
2023-03-05T17:16:27.556Z,2.47
2023-03-05T17:18:57.160Z,3.08
2023-03-05T17:21:25.157Z,1.38
2023-03-05T17:23:53.184Z,0.70
2023-03-05T17:26:21.984Z,1.17
2023-03-05T17:28:50.215Z,0.77
2023-03-05T17:31:18.303Z,2.85
2023-03-05T17:33:46.392Z,1.10
2023-03-05T17:36:16.892Z,1.23
2023-03-05T17:38:46.296Z,1.77
2023-03-05T17:41:15.178Z,1.30
2023-03-05T17:43:43.891Z,2.70
2023-03-05T17:46:12.766Z,2.40
2023-03-05T17:48:41.675Z,0.68
2023-03-05T17:51:12.801Z,2.72
2023-03-05T17:53:42.402Z,1.17
2023-03-05T17:56:12.138Z,3.20
2023-03-05T17:58:41.140Z,0.95
2023-03-05T18:01:10.186Z,2.75
2023-03-05T18:03:38.651Z,1.40
2023-03-05T18:06:07.856Z,2.47
2023-03-05T18:08:35.844Z,2.65
2023-03-05T18:11:05.455Z,2.05
2023-03-05T18:13:33.332Z,1.92
2023-03-05T18:16:01.503Z,1.20
2023-03-05T18:18:29.500Z,3.95
2023-03-05T18:20:57.525Z,1.77
2023-03-05T18:23:25.580Z,0.88
2023-03-05T18:25:53.639Z,3.25
2023-03-05T18:28:22.920Z,1.27
2023-03-05T18:30:50.981Z,1.45
2023-03-05T18:33:22.294Z,1.52
2023-03-05T18:35:52.309Z,1.58
2023-03-05T18:38:21.302Z,2.28
2023-03-05T18:40:51.275Z,2.33
2023-03-05T18:43:20.592Z,1.13
2023-03-05T18:45:50.755Z,0.68
2023-03-05T18:48:19.491Z,1.33
2023-03-05T18:50:47.800Z,2.22
2023-03-05T18:53:16.158Z,1.92
2023-03-05T18:55:44.937Z,1.67
2023-03-05T18:58:15.673Z,1.95
2023-03-05T19:00:44.924Z,2.22
2023-03-05T19:03:15.245Z,2.55
2023-03-05T19:05:43.591Z,1.70
2023-03-05T19:08:12.388Z,2.65
2023-03-05T19:10:40.448Z,1.83
2023-03-05T19:13:18.722Z,2.08
2023-03-05T19:15:46.773Z,1.27
2023-03-05T19:18:16.052Z,1.90
2023-03-05T19:20:44.004Z,1.30
2023-03-05T19:23:11.989Z,1.35
2023-03-05T19:25:41.633Z,2.40
2023-03-05T19:28:09.583Z,1.40
2023-03-05T19:30:38.645Z,2.90
2023-03-05T19:33:06.640Z,5.07
2023-03-05T19:35:36.151Z,2.22
2023-03-05T19:38:04.093Z,0.60
2023-03-05T19:40:32.055Z,1.40
2023-03-05T19:43:00.136Z,2.35
2023-03-05T19:45:28.218Z,2.70
2023-03-05T19:47:56.235Z,4.47
2023-03-05T19:50:24.370Z,5.47
2023-03-05T19:52:53.709Z,3.25
2023-03-05T19:55:21.903Z,2.70
2023-03-05T19:57:49.880Z,2.28
2023-03-05T20:00:18.701Z,1.48
2023-03-05T20:02:48.600Z,2.33
2023-03-05T20:05:16.584Z,3.38
2023-03-05T20:07:44.732Z,2.85
2023-03-05T20:10:14.534Z,1.73
2023-03-05T20:12:44.026Z,4.07
2023-03-05T20:15:12.179Z,1.85
2023-03-05T20:17:40.147Z,1.58
2023-03-05T20:20:09.398Z,1.73
2023-03-05T20:22:37.438Z,1.15
2023-03-05T20:25:06.864Z,1.65
2023-03-05T20:27:36.199Z,4.63
2023-03-05T20:30:05.226Z,1.80
2023-03-05T20:32:33.308Z,3.13
2023-03-05T20:35:01.315Z,2.28
2023-03-05T20:38:00.172Z,1.70
2023-03-05T20:40:28.483Z,3.13
2023-03-05T20:42:57.801Z,2.00
2023-03-05T20:45:25.805Z,1.92
2023-03-05T20:47:53.701Z,1.15
2023-03-05T20:50:22.396Z,1.20
2023-03-05T20:52:50.382Z,2.40
2023-03-05T20:55:18.296Z,1.00
2023-03-05T20:57:46.306Z,2.67
2023-03-05T21:00:16.771Z,1.90
2023-03-05T21:02:44.792Z,1.30
2023-03-05T21:05:13.319Z,2.67
2023-03-05T21:07:41.271Z,1.60
2023-03-05T21:10:09.742Z,1.60
2023-03-05T21:12:37.763Z,1.23
2023-03-05T21:15:06.771Z,2.15
2023-03-05T21:17:36.202Z,1.20
2023-03-05T21:20:05.742Z,0.98
2023-03-05T21:22:33.695Z,1.55
2023-03-05T21:25:21.973Z,1.50
2023-03-05T21:27:51.697Z,1.98
2023-03-05T21:30:20.523Z,1.40
2023-03-05T21:32:50.288Z,0.95
2023-03-05T21:35:19.560Z,1.35
2023-03-05T21:37:47.644Z,2.00
2023-03-05T21:40:17.427Z,1.00
2023-03-05T21:42:46.136Z,2.25
2023-03-05T21:45:15.963Z,1.02
2023-03-05T21:47:43.970Z,0.65
2023-03-05T21:50:14.986Z,1.00
2023-03-05T21:52:43.627Z,1.25
2023-03-05T21:55:14.162Z,1.08
2023-03-05T21:57:42.729Z,2.95
2023-03-05T22:00:12.451Z,0.95
2023-03-05T22:02:41.955Z,1.88
2023-03-05T22:05:15.505Z,0.90
2023-03-05T22:07:45.478Z,2.22
2023-03-05T22:10:15.168Z,1.88
2023-03-05T22:12:57.590Z,2.28
2023-03-05T22:15:26.791Z,1.65
2023-03-05T22:17:54.808Z,1.38
2023-03-05T22:20:23.000Z,0.50
2023-03-05T22:22:52.603Z,0.68
2023-03-05T22:25:20.673Z,1.45
2023-03-05T22:27:48.627Z,0.57
2023-03-05T22:30:16.688Z,1.77
2023-03-05T22:32:44.806Z,1.48
2023-03-05T22:35:15.041Z,1.02
2023-03-05T22:37:43.282Z,0.80
2023-03-05T22:40:16.053Z,0.82
2023-03-05T22:42:45.329Z,1.70
2023-03-05T22:45:14.232Z,4.35
2023-03-05T22:47:42.286Z,2.20
2023-03-05T22:50:11.586Z,2.35
2023-03-05T22:52:39.657Z,0.43
2023-03-05T22:55:08.343Z,1.48
2023-03-05T22:57:37.751Z,1.90
2023-03-05T23:00:08.890Z,1.40
2023-03-05T23:02:36.995Z,0.95
2023-03-05T23:05:05.468Z,0.82
2023-03-05T23:07:35.881Z,0.73
2023-03-05T23:10:06.651Z,1.52
2023-03-05T23:12:38.535Z,0.50
2023-03-05T23:15:10.552Z,1.90
2023-03-05T23:17:38.726Z,1.17
2023-03-05T23:20:10.272Z,1.17
2023-03-05T23:22:40.156Z,0.57
2023-03-05T23:25:08.902Z,1.23
2023-03-05T23:27:38.379Z,0.60
2023-03-05T23:30:16.430Z,1.27
2023-03-05T23:32:46.460Z,1.00
2023-03-05T23:35:16.641Z,0.82
2023-03-05T23:37:44.718Z,0.60
2023-03-05T23:40:16.076Z,2.58
2023-03-05T23:42:45.957Z,0.85
2023-03-05T23:45:15.930Z,2.58
2023-03-05T23:47:44.571Z,1.10
2023-03-05T23:50:14.692Z,1.50
2023-03-05T23:52:43.484Z,0.70
2023-03-05T23:55:16.080Z,1.95
2023-03-05T23:57:45.736Z,0.60
